Weather observations for the past three days for
Lago Vista TX, Rusty Allen Airport
Metric (Imperial)
Date Time (cdt) Wind (kph) Vis. (km) Weather Sky Cond. Temperature (ºC) Relative Humidity Wind Chill (°C) Heat Index (°C) Pressure Precipitation (cm)
Air Dwpt 6 hour altimeter (cm) sea level (mb) 1 hr 3 hr 6 hr
Max. Min.
03 23:55 S 9 16.09 Fair CLR 26.1 22 78% 28 76.12 0.0
03 23:35 SE 17 G 28 16.09 Fair CLR 26.2 22 78% 28 76.12 0.0
03 23:15 SE 7 16.09 Fair CLR 26.5 22 76% 28 76.12 0.0
03 22:55 SE 13 16.09 Fair CLR 26.5 21.7 75% 28 76.12 0.0
03 22:35 SE 15 G 26 16.09 Fair CLR 26.6 21.6 74% 28 76.1 0.0
03 22:15 SE 17 G 28 16.09 Fair CLR 26.8 21.3 72% 29 76.1 0.0
03 21:55 SE 13 G 28 16.09 Fair CLR 27.2 21.1 69% 29 76.1 0.0
03 21:35 SE 19 G 28 16.09 Fair CLR 27.5 21 68% 29 76.07 0.0
03 21:15 SE 15 16.09 Fair CLR 27.8 21 67% 30 76.05 0.0
03 20:55 SE 13 16.09 Fair CLR 28.2 21 65% 30 76.05 0.0
03 20:35 SE 13 16.09 Fair CLR 28.5 20.9 63% 31 76.05 0.0
03 20:15 SE 15 G 26 16.09 Fair CLR 29 21.1 62% 31 76.02 0.0
03 19:55 SE 11 G 31 16.09 Fair CLR 29.2 21 61% 32 76 0.0
03 19:35 SE 13 G 26 16.09 Fair CLR 29.7 21.5 61% 33 76 0.0
03 19:15 SE 20 G 33 16.09 Fair CLR 30.5 21.8 60% 34 76.02 0.0
03 18:55 SE 15 G 31 16.09 Fair CLR 31 22 37.5 31 59% 35 76 0.0
03 18:35 E 19 G 39 16.09 Fair CLR 32 22.2 56% 36 75.97 0.0
03 18:15 SE 24 G 31 16.09 Fair CLR 33.1 20.8 48% 36 75.95 0.0
03 17:55 SE 19 G 37 16.09 Fair CLR 34.4 20.5 44% 37 75.92 0.0
03 17:35 SE 22 G 31 16.09 Fair CLR 34.1 20.8 46% 37 75.92 0.0
03 17:15 SE 19 G 37 16.09 Partly Cloudy SCT060 SCT085 35.3 20.4 42% 38 75.92 0.0
03 16:55 SE 19 G 28 16.09 Mostly Cloudy SCT065 BKN085 36.9 20.4 38% 40 75.92 0.0
03 16:35 SE 19 16.09 Partly Cloudy SCT065 35.6 20.1 40% 38 75.92 0.0
03 16:15 E 13 16.09 Fair CLR 35.6 19.9 40% 38 75.92 0.0
03 15:55 SE 13 G 26 16.09 Fair CLR 37.2 19.6 36% 40 75.95 0.0
03 15:35 SE 6 16.09 Fair CLR 36 19.1 37% 38 75.97 0.0
03 15:15 S 6 16.09 Fair CLR 37.2 19.7 36% 40 76 0.0
03 14:55 SE 15 16.09 Fair CLR 36.6 20.3 39% 40 76.02 0.0
03 14:35 SE 11 16.09 Fair CLR 36.4 20.4 39% 40 76.05 0.0
03 14:15 NE 6 16.09 Partly Cloudy SCT095 36.1 20.4 40% 39 76.05 0.0
03 13:55 SE 11 16.09 Mostly Cloudy BKN095 37.3 19.7 36% 40 76.1 0.0
03 13:35 S 11 16.09 Fair CLR 35.7 19.6 39% 38 76.1 0.0
03 13:15 SE 7 16.09 Partly Cloudy SCT095 34.1 19.6 42% 36 76.12 0.0
03 12:55 SW 7 16.09 Fair CLR 34.6 19.7 34.9 25.5 42% 37 76.15 0.0
03 12:35 SW 15 16.09 Fair CLR 33.9 19.6 43% 36 76.15 0.0
03 12:15 S 19 G 26 16.09 Fair CLR 33.7 19.7 44% 36 76.17 0.0
03 11:55 S 13 16.09 Fair CLR 33.3 20.6 47% 36 76.17 0.0
03 11:35 SW 17 G 26 16.09 Fair CLR 32.5 20.6 49% 35 76.2 0.0
03 11:15 SW 13 16.09 Fair CLR 31.7 21.2 54% 35 76.17 0.0
03 10:55 S 15 G 26 16.09 Fair CLR 30.9 21.4 57% 34 76.17 0.0
03 10:35 S 15 16.09 Fair CLR 30.1 21.8 61% 33 76.17 0.0
03 10:15 SW 19 16.09 Fair CLR 29.9 22 63% 33 76.17 0.0
03 09:55 S 13 16.09 Partly Cloudy SCT019 28.9 22.5 68% 32 76.17 0.0
03 09:35 SW 13 16.09 Partly Cloudy SCT019 28.5 22.6 70% 32 76.17 0.0
03 09:15 SW 20 G 30 16.09 Partly Cloudy SCT017 27.9 23 75% 31 76.17 0.0
03 08:55 SW 17 G 26 16.09 Mostly Cloudy BKN015 27 23.3 80% 30 76.17 0.0
03 08:35 SW 19 16.09 Mostly Cloudy BKN015 26.8 23.6 83% 30 76.17 0.0
03 08:15 SW 15 16.09 Mostly Cloudy BKN015 26.5 23.9 86% 29 76.2 0.0
03 07:55 S 15 16.09 Overcast OVC015 26 24 89% 28 76.17 0.0
03 07:35 S 11 16.09 Overcast OVC015 25.7 24 90% 27 76.17 0.0
03 07:15 S 13 16.09 Overcast OVC015 25.6 24.2 92% 27 76.17 0.0
03 06:55 S 15 16.09 Overcast OVC015 25.5 24.3 27.5 25.5 93% 27 76.15 0.0
03 06:35 S 13 16.09 Overcast OVC013 25.5 24.5 94% 27 76.15 0.0
03 06:15 S 11 16.09 Overcast OVC011 25.5 24.5 94% 27 76.12 0.0
03 05:55 S 11 16.09 Overcast OVC011 25.5 24.5 94% 27 76.12 0.0
03 04:55 S 11 16.09 Overcast OVC013 25.5 24.1 92% 27 76.12 0.0
03 04:35 S 9 16.09 Overcast OVC013 25.5 23.8 90% 27 76.12 0.0
03 03:55 S 11 16.09 Mostly Cloudy BKN013 25.6 23.5 88% 27 76.15 0.0
03 03:35 S 15 16.09 Mostly Cloudy BKN015 25.7 23.3 87% 27 76.15 0.0
03 03:15 S 13 16.09 Partly Cloudy SCT015 26 23.1 84% 28 76.15 0.0
03 02:55 S 13 16.09 Fair CLR 26 22.7 82% 28 76.15 0.0
03 02:35 S 13 16.09 Fair CLR 26.3 22.5 80% 28 76.15 0.0
03 02:15 S 19 G 26 16.09 Fair CLR 26.5 22 76% 28 76.15 0.0
03 01:55 S 11 G 26 16.09 Fair CLR 26.8 21.6 73% 29 76.17 0.0
03 01:35 S 11 16.09 Fair CLR 27 21.3 71% 29 76.17 0.0
03 01:15 S 11 16.09 Fair CLR 27.2 21.2 70% 29 76.17 0.0
03 00:55 S 11 16.09 Fair CLR 27.5 21 34.7 27.5 68% 29 76.17 0.0
03 00:35 SE 11 G 30 16.09 Fair CLR 27.9 20.6 65% 30 76.17 0.0
03 00:15 SE 15 16.09 Fair CLR 27.6 20.6 66% 29 76.17 0.0
02 23:55 SE 15 16.09 Fair CLR 27.6 20.7 66% 29 76.15 0.0
02 23:35 E 11 16.09 Fair CLR 27.5 20.6 66% 29 76.15 0.0
02 23:15 E 15 16.09 Fair CLR 27.8 20.4 64% 30 76.15 0.0
02 22:55 E 17 G 28 16.09 Partly Cloudy SCT095 28.6 20.1 60% 30 76.15 0.0
02 22:35 E 13 16.09 Partly Cloudy SCT095 29.6 19.5 55% 31 76.12 0.0
02 22:15 E 13 16.09 Fair CLR 30 19.2 52% 31 76.1 0.0
02 21:55 E 9 16.09 Fair CLR 30 19.1 52% 31 76.1 0.0
02 21:35 E 6 16.09 Partly Cloudy SCT120 30 19 52% 31 76.07 0.0
02 21:15 E 6 16.09 Partly Cloudy SCT120 30.2 19 51% 32 76.05 0.0
02 20:55 E 6 16.09 Fair CLR 30.8 18.8 49% 32 76.05 0.0
02 20:35 E 6 16.09 Partly Cloudy SCT120 31 19.1 49% 32 76.02 0.0
02 20:15 E 6 16.09 Partly Cloudy SCT120 31.7 19.1 47% 33 76.02 0.0
02 19:55 E 7 16.09 Mostly Cloudy BKN110 32.4 19.1 45% 34 76.02 0.0
02 19:35 E 7 16.09 Overcast OVC110 33.2 18.7 42% 35 76.02 0.0
02 19:15 E 6 16.09 Mostly Cloudy BKN110 34 18.5 40% 35 76.02 0.0
02 18:55 Calm 16.09 Overcast OVC100 34.8 18.2 37 34.5 37% 36 76 0.0
02 18:35 Calm 16.09 Mostly Cloudy BKN100 35 17.8 36% 36 76 0.0
02 18:15 SE 7 16.09 Mostly Cloudy SCT085 BKN110 35.1 17.9 36% 36 76.02 0.0
02 17:55 Calm 16.09 Partly Cloudy SCT085 SCT110 35.9 17.8 34% 37 76 0.0
02 17:35 S 7 16.09 Mostly Cloudy BKN075 35.6 17.9 35% 37 76 0.0
02 17:15 S 9 16.09 Partly Cloudy SCT075 36.1 17.9 34% 37 76.02 0.0
02 16:55 S 6 16.09 Fair CLR 36.7 17.8 33% 38 76.02 0.0
02 16:35 Calm 16.09 Partly Cloudy SCT100 35.7 17.7 34% 37 76.05 0.0
02 16:15 Calm 16.09 Partly Cloudy SCT100 35.7 17.9 35% 37 76.05 0.0
02 15:55 S 6 16.09 Partly Cloudy SCT110 35.3 17.8 35% 36 76.05 0.0
02 15:35 W 7 16.09 Fair CLR 35.1 18 36% 36 76.07 0.0
02 15:15 Calm 16.09 Fair CLR 35.2 18.1 36% 37 76.1 0.0
02 14:55 NE 7 16.09 Fair CLR 34.9 18 37% 36 76.12 0.0
02 14:35 NE 6 16.09 Partly Cloudy SCT070 35.9 18.3 35% 37 76.15 0.0
02 14:15 E 6 16.09 Mostly Cloudy BKN070 BKN095 34.8 18.6 38% 36 76.17 0.0
02 13:55 Calm 16.09 Overcast BKN070 OVC090 34.5 18.3 38% 36 76.17 0.0
02 13:35 W 9 16.09 Mostly Cloudy SCT070 BKN100 35.8 18.3 36% 37 76.2 0.0
02 13:15 W 11 16.09 Partly Cloudy SCT060 SCT100 35.1 18.4 37% 37 76.23 0.0
02 12:55 Calm 16.09 Partly Cloudy SCT060 35 18.3 35.2 25.3 37% 36 76.25 0.0
02 12:35 W 6 16.09 Fair CLR 34 18.6 40% 35 76.28 0.0
02 12:15 SW 7 16.09 Fair CLR 33.8 18.8 41% 35 76.3 0.0
02 11:55 W 6 16.09 Fair CLR 33.7 19.3 43% 36 76.3 0.0
02 11:35 W 9 16.09 Fair CLR 33 19.3 44% 35 76.35 0.0
02 11:15 W 6 16.09 Fair CLR 32.3 19.3 46% 34 76.35 0.0
02 10:55 SW 9 16.09 Fair CLR 31.4 19.7 50% 33 76.35 0.0
02 10:35 W 13 16.09 Fair CLR 30.1 20 55% 32 76.35 0.0
02 10:20 W 9 16.09 Fair CLR 29.4 20.2 58% 31 76.35 0.0
02 09:35 W 11 16.09 Fair CLR 27.6 20.2 64% 29 76.35 0.0
02 09:15 W 11 16.09 Fair CLR 28 20.4 63% 30 76.35 0.0
02 08:55 W 7 16.09 Fair CLR 27.5 20.5 66% 29 76.35 0.0
02 08:35 W 7 16.09 Fair CLR 27 20.6 68% 29 76.35 0.0
02 08:15 SW 7 16.09 Fair CLR 26.3 20.6 71% 28 76.3 0.0
02 07:55 SW 6 16.09 Fair CLR 25.7 20.6 74% 27 76.3 0.0
02 07:35 SW 7 16.09 Fair CLR 25.3 20.5 75% 26 76.3 0.0
02 07:15 SW 7 16.09 Fair CLR 25.5 20 72% 27 76.28 0.0
02 06:55 SW 9 16.09 Fair CLR 25.6 20 27.8 25.6 71% 27 76.28 0.0
02 06:35 SW 7 16.09 Fair CLR 25.7 20 71% 27 76.25 0.0
02 06:15 SW 9 16.09 Fair CLR 26 19.9 69% 27 76.25 0.0
02 05:55 W 7 16.09 Fair CLR 26.1 19.6 67% 27 76.25 0.0
02 05:35 SW 9 16.09 Fair CLR 26.2 19.5 67% 27 76.25 0.0
02 05:15 SW 7 16.09 Fair CLR 26.5 19.2 64% 28 76.25 0.0
02 04:55 Calm 16.09 Fair CLR 26.5 18.8 63% 28 76.28 0.0
02 04:35 SW 6 16.09 Fair CLR 26.9 18.6 60% 28 76.25 0.0
02 04:15 SW 7 16.09 Fair CLR 26.8 18.4 60% 28 76.28 0.0
02 03:55 SW 7 16.09 Fair CLR 26.7 18.5 61% 28 76.28 0.0
02 03:35 S 6 16.09 Fair CLR 26.7 19.5 65% 28 76.28 0.0
02 03:15 Calm 16.09 Fair CLR 26.5 20.2 68% 28 76.25 0.0
02 02:55 Calm 16.09 Fair CLR 26.5 20.7 71% 28 76.28 0.0
02 02:35 Calm 16.09 Fair CLR 26.6 20.4 69% 28 76.28 0.0
02 02:15 S 6 16.09 Fair CLR 27.2 20.6 67% 29 76.3 0.0
02 01:55 S 6 16.09 Fair CLR 27.5 20.6 66% 29 76.3 0.0
02 01:35 S 6 16.09 Fair CLR 27.3 20.8 68% 29 76.3 0.0
02 01:15 S 7 16.09 Fair CLR 27.6 20.8 67% 30 76.3 0.0
02 00:55 S 6 16.09 Fair CLR 27.8 21 34.5 27.8 67% 30 76.3 0.0
02 00:35 SE 7 16.09 Fair CLR 28 21 66% 30 76.3 0.0
02 00:15 SE 7 16.09 Fair CLR 28.4 21 64% 31 76.3 0.0
01 23:55 SE 11 16.09 Fair CLR 28.8 20.7 62% 31 76.28 0.0
01 23:35 SE 13 16.09 Fair CLR 29 20.4 60% 31 76.3 0.0
01 23:15 SE 6 16.09 Fair CLR 29 19.8 58% 31 76.3 0.0
01 22:55 SE 7 16.09 Fair CLR 29.1 19.6 57% 31 76.28 0.0
01 22:35 SE 7 16.09 Fair CLR 29.5 19.6 55% 31 76.25 0.0
01 22:15 SE 6 16.09 Fair CLR 29.6 19.5 55% 31 76.25 0.0
01 21:55 SE 7 16.09 Fair CLR 29.9 19.2 53% 31 76.23 0.0
01 21:35 SE 9 16.09 Fair CLR 30.2 19 51% 32 76.2 0.0
01 21:15 SE 6 16.09 Fair CLR 30.6 18.1 47% 31 76.17 0.0
01 20:55 E 9 16.09 Fair CLR 31.1 18 46% 32 76.15 0.0
01 20:35 E 7 16.09 Fair CLR 31.4 18 45% 32 76.15 0.0
01 20:15 E 9 16.09 Fair CLR 31.5 17.7 44% 32 76.12 0.0
01 19:55 E 7 16.09 Fair CLR 32.1 18 43% 33 76.1 0.0
01 19:35 E 11 16.09 Fair CLR 32.9 18.3 42% 34 76.12 0.0
01 19:15 E 9 16.09 Partly Cloudy SCT070 33.8 18.2 40% 35 76.12 0.0
01 18:55 E 9 16.09 Partly Cloudy SCT075 34.6 17.9 36.5 33.4 37% 36 76.12 0.0
01 18:35 E 13 16.09 Partly Cloudy SCT085 35.1 18 36% 36 76.12 0.0
01 18:15 E 11 16.09 Fair CLR 35.5 17.8 35% 37 76.12 0.0
01 17:55 E 17 16.09 Partly Cloudy SCT075 35.6 18.1 35% 37 76.12 0.0
01 17:35 E 13 16.09 Partly Cloudy SCT075 36.1 17.6 33% 37 76.12 0.0
01 17:15 SE 7 16.09 Partly Cloudy SCT075 36.1 17.9 34% 37 76.12 0.0
01 16:55 SE 13 16.09 Partly Cloudy SCT075 36.3 17.7 33% 38 76.12 0.0
01 16:35 E 9 16.09 Fair CLR 35.2 17.7 35% 36 76.15 0.0
01 16:15 SE 11 16.09 Partly Cloudy SCT070 36.1 17.8 34% 37 76.15 0.0
01 15:55 SE 7 16.09 Partly Cloudy SCT065 35.6 17.6 34% 37 76.17 0.0
01 15:35 SE 9 G 30 16.09 Partly Cloudy SCT065 SCT100 36 18.1 35% 37 76.2 0.0
01 15:15 E 9 16.09 Mostly Cloudy SCT070 BKN075 BKN100 36.1 18.5 35% 38 76.23 0.0
01 14:55 S 6 16.09 Partly Cloudy SCT070 36.1 18.5 35% 38 76.23 0.0
01 14:35 E 9 16.09 Partly Cloudy SCT070 33.8 18.5 40% 35 76.25 0.0
01 14:15 NE 7 16.09 Partly Cloudy SCT060 SCT070 35.5 19 38% 37 76.28 0.0
01 13:55 E 7 16.09 Partly Cloudy SCT060 35.5 19.3 38% 38 76.28 0.0
01 13:35 E 7 16.09 Partly Cloudy SCT050 34.3 18.9 40% 36 76.3 0.0
01 13:15 E 13 16.09 Partly Cloudy SCT050 33.9 19.5 43% 36 76.35 0.0
01 12:55 N 7 16.09 Partly Cloudy SCT048 34.3 20.3 34.3 24.3 44% 37 76.35 0.0
01 12:35 SE 11 16.09 Partly Cloudy SCT048 32.5 20.1 48% 35 76.4 0.0
01 12:15 SE 6 16.09 Fair CLR 32.6 20.1 48% 35 76.4 0.0
01 11:55 SE 9 16.09 Fair CLR 32 19.7 48% 34 76.43 0.0
01 11:35 SE 9 16.09 Fair CLR 32.5 19.2 45% 34 76.43 0.0
01 11:15 SE 9 16.09 Fair CLR 31.2 20.9 54% 34 76.45 0.0
01 10:55 Calm 16.09 Fair CLR 30.3 20.8 57% 33 76.45 0.0
01 10:35 W 7 16.09 Fair CLR 29.5 21 60% 32 76.45 0.0
01 10:15 SW 6 16.09 Fair CLR 28.8 21.3 64% 31 76.45 0.0
01 09:55 W 6 16.09 Fair CLR 28.2 22.3 70% 31 76.45 0.0
01 09:35 W 6 16.09 Fair CLR 27.3 22.5 75% 30 76.45 0.0
01 09:15 SW 7 16.09 Fair CLR 26.7 22.8 79% 29 76.45 0.0
01 08:55 Calm 16.09 Fair CLR 26.2 22.7 81% 28 76.45 0.0
01 08:35 W 6 16.09 Fair CLR 25.8 22.7 83% 27 76.45 0.0
01 08:15 Calm 16.09 Fair CLR 25.5 22.7 85% 27 76.43 0.0
01 07:55 W 6 11.27 Fair CLR 25 22.8 88% 26 76.43 0.0
01 07:35 W 9 16.09 Fair CLR 24.6 23 91% 25 76.4 0.0
01 07:15 W 9 16.09 Fair CLR 24.5 23 91% 25 76.38 0.0
01 06:55 SW 7 16.09 Fair CLR 24.5 22.7 27.7 24.4 90% 25 76.38 0.0
01 06:35 Calm 16.09 Fair CLR 24.5 22.6 89% 25 76.4 0.0
01 06:15 SW 6 16.09 Fair CLR 24.7 22.5 88% 25 76.38 0.0
01 05:55 SW 9 16.09 Fair CLR 24.7 22.3 87% 25 76.38 0.0
01 05:35 SW 11 16.09 Fair CLR 25 22 83% 26 76.35 0.0
01 05:15 S 6 16.09 Fair CLR 24.7 22 85% 25 76.38 0.0
01 04:55 S 6 16.09 Fair CLR 24.9 21.7 82% 26 76.38 0.0
01 04:35 S 9 16.09 Fair CLR 25.2 21.5 80% 26 76.38 0.0
01 04:15 S 7 16.09 Fair CLR 25.3 21.7 81% 26 76.38 0.0
01 03:55 S 9 16.09 Fair CLR 25.5 21.7 80% 27 76.38 0.0
01 03:35 S 7 16.09 Fair CLR 25.6 21.7 79% 27 76.38 0.0
01 03:15 S 9 16.09 Fair CLR 25.8 21.5 77% 27 76.35 0.0
01 02:55 S 7 16.09 Fair CLR 26 21.3 75% 27 76.35 0.0
01 02:35 S 11 16.09 Fair CLR 26.4 21.1 73% 28 76.38 0.0
01 02:15 S 9 16.09 Fair CLR 26.6 21.1 72% 28 76.38 0.0
01 01:55 S 7 16.09 Fair CLR 26.7 21 71% 28 76.38 0.0
01 01:35 S 9 16.09 Fair CLR 27 20.9 69% 29 76.38 0.0
01 01:15 S 7 16.09 Fair CLR 27.4 20.8 67% 29 76.35 0.0
01 00:55 S 6 16.09 Fair CLR 27.7 20.9 34.2 27.7 67% 30 76.35 0.0
01 00:35 S 11 16.09 Fair CLR 28 21 66% 30 76.35 0.0
Date Time (cdt) Wind (kph) Vis. (km) Weather Sky Cond. Air Dwpt Max. Min. Relative Humidity Wind Chill (°C) Heat Index (°C) altimeter (cm) sea level (mb) 1 hr 3 hr 6 hr
6 hour
Temperature (ºC) Pressure Precipitation (cm)